createdAt,value
2023-05-03T00:01:01.951Z,26.80
2023-05-03T00:03:32.059Z,26.80
2023-05-03T00:06:13.798Z,26.81
2023-05-03T00:08:44.305Z,26.79
2023-05-03T00:11:14.435Z,26.80
2023-05-03T00:13:44.830Z,26.80
2023-05-03T00:16:15.269Z,26.78
2023-05-03T00:18:45.048Z,26.80
2023-05-03T00:21:17.392Z,26.79
2023-05-03T00:23:47.646Z,26.78
2023-05-03T00:26:17.854Z,26.77
2023-05-03T00:28:48.087Z,26.77
2023-05-03T00:31:18.249Z,26.77
2023-05-03T00:33:48.568Z,26.76
2023-05-03T00:36:21.094Z,26.76
2023-05-03T00:38:51.709Z,26.77
2023-05-03T00:41:22.018Z,26.76
2023-05-03T00:43:52.462Z,26.74
2023-05-03T00:46:23.108Z,26.75
2023-05-03T00:48:53.752Z,26.75
2023-05-03T00:51:28.215Z,26.75
2023-05-03T00:53:58.719Z,26.75
2023-05-03T00:56:32.994Z,26.75
2023-05-03T00:59:09.228Z,26.72
2023-05-03T01:01:39.773Z,26.73
2023-05-03T01:04:09.922Z,26.73
2023-05-03T01:06:51.759Z,26.73
2023-05-03T01:09:36.733Z,26.71
2023-05-03T01:12:26.701Z,26.70
2023-05-03T01:15:09.748Z,26.68
2023-05-03T01:17:49.466Z,26.68
2023-05-03T01:20:25.754Z,26.67
2023-05-03T01:23:16.964Z,26.66
2023-05-03T01:25:49.312Z,26.67
2023-05-03T01:28:19.575Z,26.66
2023-05-03T01:30:52.486Z,26.67
2023-05-03T01:33:35.038Z,26.67
2023-05-03T01:36:15.528Z,26.66
2023-05-03T01:38:45.945Z,26.65
2023-05-03T01:41:23.360Z,26.66
2023-05-03T01:43:57.465Z,26.65
2023-05-03T01:46:28.098Z,26.65
2023-05-03T01:48:58.668Z,26.65
2023-05-03T01:51:28.939Z,26.63
2023-05-03T01:53:58.718Z,26.61
2023-05-03T01:56:32.152Z,26.60
2023-05-03T01:59:02.447Z,26.59
2023-05-03T02:01:32.994Z,26.57
2023-05-03T02:04:03.520Z,26.53
2023-05-03T02:06:33.398Z,26.50
2023-05-03T02:09:03.524Z,26.46
2023-05-03T02:11:36.513Z,26.42
2023-05-03T02:14:07.054Z,26.38
2023-05-03T02:16:37.528Z,26.35
2023-05-03T02:19:08.466Z,26.32
2023-05-03T02:21:40.547Z,26.28
2023-05-03T02:24:11.006Z,26.25
2023-05-03T02:26:42.299Z,26.21
2023-05-03T02:29:12.675Z,26.18
2023-05-03T02:31:42.754Z,26.15
2023-05-03T02:34:13.066Z,26.13
2023-05-03T02:36:43.735Z,26.12
2023-05-03T02:39:13.965Z,26.10
2023-05-03T02:41:47.002Z,26.08
2023-05-03T02:44:17.485Z,26.07
2023-05-03T02:46:48.069Z,26.06
2023-05-03T02:49:18.084Z,26.05
2023-05-03T02:51:48.462Z,26.04
2023-05-03T02:54:19.140Z,26.04
2023-05-03T02:56:51.510Z,26.02
2023-05-03T02:59:21.954Z,26.01
2023-05-03T03:01:53.357Z,26.01
2023-05-03T03:04:23.755Z,25.99
2023-05-03T03:06:54.930Z,25.97
2023-05-03T03:09:25.073Z,25.97
2023-05-03T03:11:57.343Z,25.95
2023-05-03T03:14:27.953Z,25.94
2023-05-03T03:16:58.421Z,25.94
2023-05-03T03:19:29.153Z,25.91
2023-05-03T03:21:59.607Z,25.89
2023-05-03T03:24:29.663Z,25.88
2023-05-03T03:27:01.347Z,25.85
2023-05-03T03:29:35.719Z,25.84
2023-05-03T03:32:06.872Z,25.81
2023-05-03T03:34:37.508Z,25.82
2023-05-03T03:37:08.102Z,25.80
2023-05-03T03:39:40.360Z,25.79
2023-05-03T03:42:15.366Z,25.81
2023-05-03T03:44:45.795Z,25.80
2023-05-03T03:47:16.676Z,25.82
2023-05-03T03:49:47.151Z,25.83
2023-05-03T03:52:17.744Z,25.85
2023-05-03T03:54:48.100Z,25.86
2023-05-03T03:57:20.072Z,25.89
2023-05-03T03:59:51.767Z,25.89
2023-05-03T04:02:22.755Z,25.91
2023-05-03T04:04:53.605Z,25.94
2023-05-03T04:07:23.808Z,25.94
2023-05-03T04:09:54.139Z,25.95
2023-05-03T04:12:26.518Z,25.96
2023-05-03T04:14:57.747Z,25.95
2023-05-03T04:17:29.889Z,25.95
2023-05-03T04:19:59.777Z,25.95
2023-05-03T04:22:31.975Z,25.95
2023-05-03T04:25:01.785Z,25.94
2023-05-03T04:27:34.801Z,25.95
2023-05-03T04:30:05.646Z,25.94
2023-05-03T04:32:38.135Z,25.95
2023-05-03T04:35:11.357Z,25.97
2023-05-03T04:37:45.110Z,26.00
2023-05-03T04:40:17.632Z,26.02
2023-05-03T04:42:50.440Z,26.05
2023-05-03T04:45:21.565Z,26.10
2023-05-03T04:47:53.164Z,26.14
2023-05-03T04:50:23.496Z,26.20
2023-05-03T04:52:53.265Z,26.25
2023-05-03T04:55:24.502Z,26.30
2023-05-03T04:57:58.109Z,26.35
2023-05-03T05:00:28.821Z,26.40
2023-05-03T05:02:59.496Z,26.45
2023-05-03T05:05:29.818Z,26.51
2023-05-03T05:07:59.882Z,26.55
2023-05-03T05:10:29.968Z,26.60
2023-05-03T05:13:02.081Z,26.66
2023-05-03T05:15:32.904Z,26.69
2023-05-03T05:18:03.773Z,26.75
2023-05-03T05:20:34.138Z,26.80
2023-05-03T05:23:04.401Z,26.85
2023-05-03T05:25:34.260Z,26.91
2023-05-03T05:28:06.256Z,26.96
2023-05-03T05:30:37.222Z,27.01
2023-05-03T05:33:07.440Z,27.06
2023-05-03T05:35:38.242Z,27.12
2023-05-03T05:38:09.148Z,27.17
2023-05-03T05:40:40.015Z,27.23
2023-05-03T05:43:12.471Z,27.28
2023-05-03T05:45:43.565Z,27.33
2023-05-03T05:48:13.977Z,27.37
2023-05-03T05:50:44.136Z,27.43
2023-05-03T05:53:14.683Z,27.47
2023-05-03T05:55:45.013Z,27.52
2023-05-03T05:58:18.338Z,27.56
2023-05-03T06:00:49.558Z,27.62
2023-05-03T06:03:19.755Z,27.67
2023-05-03T06:05:50.200Z,27.70
2023-05-03T06:08:20.709Z,27.75
2023-05-03T06:10:54.043Z,27.79
2023-05-03T06:13:27.192Z,27.84
2023-05-03T06:15:57.333Z,27.88
2023-05-03T06:18:27.484Z,27.93
2023-05-03T06:20:57.856Z,27.96
2023-05-03T06:23:28.325Z,28.01
2023-05-03T06:25:58.701Z,28.05
2023-05-03T06:28:31.367Z,28.10
2023-05-03T06:31:04.957Z,28.13
2023-05-03T06:33:35.227Z,28.15
2023-05-03T06:36:05.653Z,28.18
2023-05-03T06:38:35.967Z,28.21
2023-05-03T06:41:06.523Z,28.25
2023-05-03T06:43:38.688Z,28.29
2023-05-03T06:46:09.126Z,28.32
2023-05-03T06:48:39.602Z,28.36
2023-05-03T06:51:10.168Z,28.39
2023-05-03T06:53:40.831Z,28.42
2023-05-03T06:56:11.787Z,28.45
2023-05-03T06:58:43.941Z,28.48
2023-05-03T07:01:14.216Z,28.52
2023-05-03T07:03:44.355Z,28.55
2023-05-03T07:06:14.557Z,28.59
2023-05-03T07:08:45.090Z,28.62
2023-05-03T07:11:15.408Z,28.66
2023-05-03T07:13:47.654Z,28.68
2023-05-03T07:16:17.938Z,28.72
2023-05-03T07:18:48.565Z,28.75
2023-05-03T07:21:19.133Z,28.79
2023-05-03T07:23:49.140Z,28.83
2023-05-03T07:26:19.545Z,28.86
2023-05-03T07:28:51.799Z,28.90
2023-05-03T07:31:23.371Z,28.93
2023-05-03T07:33:53.690Z,28.97
2023-05-03T07:36:23.921Z,29.00
2023-05-03T07:38:53.822Z,29.04
2023-05-03T07:41:25.670Z,29.05
2023-05-03T07:43:57.151Z,29.09
2023-05-03T07:46:27.584Z,29.12
2023-05-03T07:48:57.989Z,29.15
2023-05-03T07:51:29.115Z,29.18
2023-05-03T07:53:59.577Z,29.22
2023-05-03T07:56:32.288Z,29.26
2023-05-03T07:59:10.068Z,29.30
2023-05-03T08:01:41.711Z,29.33
2023-05-03T08:04:11.904Z,29.36
2023-05-03T08:06:43.397Z,29.39
2023-05-03T08:09:14.389Z,29.42
2023-05-03T08:11:45.034Z,29.45
2023-05-03T08:14:17.518Z,29.47
2023-05-03T08:16:47.498Z,29.50
2023-05-03T08:19:17.747Z,29.50
2023-05-03T08:21:49.162Z,29.52
2023-05-03T08:24:20.344Z,29.52
2023-05-03T08:26:51.180Z,29.54
2023-05-03T08:29:23.077Z,29.56
2023-05-03T08:31:53.690Z,29.57
2023-05-03T08:34:24.006Z,29.59
2023-05-03T08:36:54.414Z,29.61
2023-05-03T08:39:27.960Z,29.64
2023-05-03T08:41:59.164Z,29.66
2023-05-03T08:44:34.127Z,29.68
2023-05-03T08:47:05.540Z,29.70
2023-05-03T08:49:38.934Z,29.72
2023-05-03T08:52:12.248Z,29.74
2023-05-03T08:54:42.072Z,29.76
2023-05-03T08:57:17.559Z,29.78
2023-05-03T08:59:54.792Z,29.80
2023-05-03T09:02:25.353Z,29.82
2023-05-03T09:04:55.597Z,29.83
2023-05-03T09:07:25.450Z,29.84
2023-05-03T09:09:57.613Z,29.85
2023-05-03T09:12:41.575Z,29.88
2023-05-03T09:15:24.565Z,29.88
2023-05-03T09:18:16.327Z,29.89
2023-05-03T09:20:52.762Z,29.90
2023-05-03T09:23:33.781Z,29.92
2023-05-03T09:26:04.317Z,29.93
2023-05-03T09:28:44.944Z,29.94
2023-05-03T09:31:17.045Z,29.93
2023-05-03T09:33:47.945Z,29.94
2023-05-03T09:36:18.492Z,29.96
2023-05-03T09:38:48.905Z,29.96
2023-05-03T09:41:29.242Z,29.97
2023-05-03T09:44:03.268Z,29.97
2023-05-03T09:46:35.261Z,29.97
2023-05-03T09:49:06.181Z,29.98
2023-05-03T09:51:37.327Z,30.00
2023-05-03T09:54:13.215Z,30.01
2023-05-03T09:56:47.785Z,30.02
2023-05-03T09:59:18.297Z,30.03
2023-05-03T10:01:52.709Z,30.03
2023-05-03T10:04:27.620Z,30.04
2023-05-03T10:07:05.203Z,30.04
2023-05-03T10:09:42.256Z,30.06
2023-05-03T10:12:17.799Z,30.05
2023-05-03T10:14:51.325Z,30.04
2023-05-03T10:17:47.080Z,30.05
2023-05-03T10:20:28.094Z,30.05
2023-05-03T10:23:14.719Z,30.05
2023-05-03T10:26:17.589Z,30.04
2023-05-03T10:28:48.345Z,30.04
2023-05-03T10:31:48.451Z,30.05
2023-05-03T10:34:33.509Z,30.05
2023-05-03T10:37:10.262Z,30.05
2023-05-03T10:39:47.740Z,30.07
2023-05-03T10:42:18.463Z,30.06
2023-05-03T10:44:55.232Z,30.08
2023-05-03T10:47:27.495Z,30.08
2023-05-03T10:50:45.072Z,30.08
2023-05-03T10:53:41.632Z,30.08
2023-05-03T10:56:15.959Z,30.10
2023-05-03T10:58:48.013Z,30.11
2023-05-03T11:01:21.491Z,30.13
2023-05-03T11:04:02.671Z,30.14
2023-05-03T11:06:37.153Z,30.14
2023-05-03T11:09:09.870Z,30.16
2023-05-03T11:11:43.799Z,30.17
2023-05-03T11:14:15.553Z,30.17
2023-05-03T11:16:51.570Z,30.18
2023-05-03T11:19:22.262Z,30.18
2023-05-03T11:21:54.993Z,30.18
2023-05-03T11:24:24.765Z,30.18
2023-05-03T11:26:55.186Z,30.19
2023-05-03T11:29:27.998Z,30.19
2023-05-03T11:31:59.019Z,30.18
2023-05-03T11:34:29.689Z,30.18
2023-05-03T11:37:02.783Z,30.18
2023-05-03T11:39:35.343Z,30.18
2023-05-03T11:42:06.818Z,30.18
2023-05-03T11:44:38.040Z,30.17
2023-05-03T11:47:09.674Z,30.18
2023-05-03T11:49:40.716Z,30.19
2023-05-03T11:52:12.645Z,30.17
2023-05-03T11:54:43.092Z,30.18
2023-05-03T11:57:17.068Z,30.18
2023-05-03T11:59:47.871Z,30.17
2023-05-03T12:02:18.831Z,30.18
2023-05-03T12:04:49.578Z,30.17
2023-05-03T12:07:23.960Z,30.18
2023-05-03T12:10:09.942Z,30.19
2023-05-03T12:13:00.456Z,30.18
2023-05-03T12:15:34.385Z,30.17
2023-05-03T12:18:09.362Z,30.18
2023-05-03T12:21:29.226Z,30.16
2023-05-03T12:23:34.628Z,30.16
2023-05-03T12:26:05.717Z,30.14
2023-05-03T12:28:36.503Z,30.14
2023-05-03T12:31:06.936Z,30.13
2023-05-03T12:33:38.758Z,30.13
2023-05-03T12:36:14.440Z,30.13
2023-05-03T12:38:49.468Z,30.12
2023-05-03T12:41:50.711Z,30.11
2023-05-03T12:44:10.923Z,30.10
2023-05-03T12:46:44.797Z,30.11
2023-05-03T12:49:16.005Z,30.10
2023-05-03T12:51:55.486Z,30.10
2023-05-03T12:54:41.430Z,30.10
2023-05-03T12:57:15.323Z,30.09
2023-05-03T12:59:52.192Z,30.08
2023-05-03T13:05:00.075Z,30.08
2023-05-03T13:07:41.534Z,30.07
2023-05-03T13:12:49.484Z,30.06
2023-05-03T13:15:20.250Z,30.06
2023-05-03T13:17:52.020Z,30.06
2023-05-03T13:20:22.562Z,30.06
2023-05-03T13:22:53.030Z,30.06
2023-05-03T13:25:30.636Z,30.06
2023-05-03T13:28:03.791Z,30.04
2023-05-03T13:30:34.011Z,30.04
2023-05-03T13:33:04.766Z,30.03
2023-05-03T13:35:35.545Z,30.02
2023-05-03T13:38:05.554Z,30.00
2023-05-03T13:40:37.798Z,30.01
2023-05-03T13:43:07.731Z,29.98
2023-05-03T13:45:38.369Z,29.98
2023-05-03T13:48:17.639Z,29.98
2023-05-03T13:50:49.965Z,29.97
2023-05-03T13:53:20.676Z,29.95
2023-05-03T13:55:52.683Z,29.95
2023-05-03T13:58:24.207Z,29.94
2023-05-03T14:00:54.289Z,29.93
2023-05-03T14:03:25.357Z,29.92
2023-05-03T14:05:55.994Z,29.92
2023-05-03T14:08:27.116Z,29.91
2023-05-03T14:10:59.053Z,29.90
2023-05-03T14:13:40.496Z,29.89
2023-05-03T14:19:01.401Z,29.85
2023-05-03T14:21:32.131Z,29.85
2023-05-03T14:24:03.219Z,29.84
2023-05-03T14:26:35.412Z,29.83
2023-05-03T14:29:06.173Z,29.81
2023-05-03T14:31:37.049Z,29.80
2023-05-03T14:34:07.395Z,29.79
2023-05-03T14:36:43.957Z,29.78
2023-05-03T14:39:16.799Z,29.77
2023-05-03T14:41:51.545Z,29.76
2023-05-03T14:44:21.909Z,29.76
2023-05-03T14:46:58.381Z,29.75
2023-05-03T14:49:28.629Z,29.74
2023-05-03T14:51:58.658Z,29.73
2023-05-03T14:54:28.677Z,29.71
2023-05-03T14:57:01.721Z,29.72
2023-05-03T14:59:35.236Z,29.70
2023-05-03T15:02:05.734Z,29.70
2023-05-03T15:04:37.087Z,29.68
2023-05-03T15:07:07.950Z,29.66
2023-05-03T15:09:38.358Z,29.65
2023-05-03T15:12:11.388Z,29.65
2023-05-03T15:14:41.969Z,29.65
2023-05-03T15:17:13.399Z,29.63
2023-05-03T15:19:43.384Z,29.62
2023-05-03T15:22:13.898Z,29.61
2023-05-03T15:24:44.542Z,29.60
2023-05-03T15:27:16.409Z,29.60
2023-05-03T15:29:46.919Z,29.58
2023-05-03T15:32:17.671Z,29.58
2023-05-03T15:34:48.001Z,29.57
2023-05-03T15:37:18.333Z,29.56
2023-05-03T15:39:48.437Z,29.56
2023-05-03T15:42:22.776Z,29.55
2023-05-03T15:44:53.206Z,29.53
2023-05-03T15:47:23.408Z,29.52
2023-05-03T15:49:53.916Z,29.52
2023-05-03T15:52:25.371Z,29.52
2023-05-03T15:54:56.695Z,29.51
2023-05-03T15:57:29.736Z,29.50
2023-05-03T16:00:00.385Z,29.48
2023-05-03T16:02:30.330Z,29.49
2023-05-03T16:05:00.687Z,29.47
2023-05-03T16:07:31.456Z,29.45
2023-05-03T16:10:01.513Z,29.46
2023-05-03T16:12:33.721Z,29.45
2023-05-03T16:15:05.084Z,29.44
2023-05-03T16:17:38.491Z,29.43
2023-05-03T16:20:12.232Z,29.42
2023-05-03T16:22:42.395Z,29.41
2023-05-03T16:25:13.218Z,29.40
2023-05-03T16:27:52.607Z,29.41
2023-05-03T16:30:23.140Z,29.38
2023-05-03T16:32:53.884Z,29.38
2023-05-03T16:35:24.792Z,29.37
2023-05-03T16:37:56.438Z,29.36
2023-05-03T16:40:26.660Z,29.34
2023-05-03T16:42:59.284Z,29.35
2023-05-03T16:45:29.881Z,29.33
2023-05-03T16:48:02.048Z,29.31
2023-05-03T16:50:35.149Z,29.30
2023-05-03T16:53:05.041Z,29.28
2023-05-03T16:55:35.492Z,29.28
2023-05-03T16:58:08.960Z,29.28
2023-05-03T17:00:48.358Z,29.26
2023-05-03T17:03:19.386Z,29.24
2023-05-03T17:05:49.598Z,29.24
2023-05-03T17:08:20.183Z,29.23
2023-05-03T17:10:50.797Z,29.21
2023-05-03T17:13:23.254Z,29.20
2023-05-03T17:15:53.913Z,29.19
2023-05-03T17:18:24.441Z,29.17
2023-05-03T17:20:55.311Z,29.17
2023-05-03T17:23:25.758Z,29.15
2023-05-03T17:26:01.013Z,29.15
2023-05-03T17:28:33.024Z,29.14
2023-05-03T17:31:04.341Z,29.12
2023-05-03T17:33:35.042Z,29.11
2023-05-03T17:36:07.035Z,29.10
2023-05-03T17:38:38.409Z,29.08
2023-05-03T17:41:09.882Z,29.08
2023-05-03T17:43:43.238Z,29.06
2023-05-03T17:46:16.333Z,29.05
2023-05-03T17:48:48.888Z,29.04
2023-05-03T17:51:19.317Z,29.01
2023-05-03T17:53:50.235Z,29.01
2023-05-03T17:56:21.905Z,29.00
2023-05-03T17:58:53.944Z,28.99
2023-05-03T18:01:24.238Z,28.98
2023-05-03T18:03:54.319Z,28.97
2023-05-03T18:06:25.009Z,28.95
2023-05-03T18:08:55.159Z,28.94
2023-05-03T18:11:25.963Z,28.94
2023-05-03T18:13:58.244Z,28.92
2023-05-03T18:16:29.116Z,28.91
2023-05-03T18:18:59.592Z,28.91
2023-05-03T18:21:30.220Z,28.89
2023-05-03T18:24:01.437Z,28.89
2023-05-03T18:26:31.956Z,28.87
2023-05-03T18:29:04.598Z,28.86
2023-05-03T18:31:35.246Z,28.85
2023-05-03T18:34:05.364Z,28.84
2023-05-03T18:36:36.047Z,28.83
2023-05-03T18:39:07.560Z,28.82
2023-05-03T18:41:38.222Z,28.80
2023-05-03T18:44:11.244Z,28.80
2023-05-03T18:46:41.939Z,28.78
2023-05-03T18:49:12.272Z,28.78
2023-05-03T18:51:42.745Z,28.77
2023-05-03T18:54:13.485Z,28.76
2023-05-03T18:56:44.189Z,28.75
2023-05-03T18:59:15.543Z,28.74
2023-05-03T19:01:46.259Z,28.73
2023-05-03T19:04:17.077Z,28.72
2023-05-03T19:06:47.459Z,28.71
2023-05-03T19:09:18.504Z,28.70
2023-05-03T19:11:50.660Z,28.68
2023-05-03T19:14:22.799Z,28.67
2023-05-03T19:16:53.387Z,28.66
2023-05-03T19:19:23.940Z,28.64
2023-05-03T19:21:54.204Z,28.64
2023-05-03T19:24:24.891Z,28.63
2023-05-03T19:26:55.690Z,28.62
2023-05-03T19:29:28.386Z,28.61
2023-05-03T19:31:58.802Z,28.61
2023-05-03T19:34:29.553Z,28.60
2023-05-03T19:36:59.872Z,28.60
2023-05-03T19:39:33.059Z,28.58
2023-05-03T19:42:04.389Z,28.57
2023-05-03T19:44:36.257Z,28.57
2023-05-03T19:47:06.915Z,28.55
2023-05-03T19:49:38.121Z,28.54
2023-05-03T19:52:08.702Z,28.53
2023-05-03T19:54:39.461Z,28.53
2023-05-03T19:57:09.591Z,28.52
2023-05-03T19:59:41.396Z,28.52
2023-05-03T20:02:11.431Z,28.50
2023-05-03T20:04:41.980Z,28.49
2023-05-03T20:07:12.460Z,28.48
2023-05-03T20:09:42.844Z,28.48
2023-05-03T20:12:13.611Z,28.46
2023-05-03T20:14:46.400Z,28.46
2023-05-03T20:17:16.331Z,28.43
2023-05-03T20:19:47.439Z,28.43
2023-05-03T20:22:18.329Z,28.42
2023-05-03T20:24:50.680Z,28.41
2023-05-03T20:27:23.080Z,28.39
2023-05-03T20:29:55.102Z,28.39
2023-05-03T20:32:27.683Z,28.37
2023-05-03T20:34:58.137Z,28.37
2023-05-03T20:37:29.031Z,28.35
2023-05-03T20:39:59.890Z,28.35
2023-05-03T20:42:30.338Z,28.33
2023-05-03T20:45:02.590Z,28.33
2023-05-03T20:47:33.183Z,28.31
2023-05-03T20:50:03.658Z,28.30
2023-05-03T20:52:34.279Z,28.31
2023-05-03T20:55:04.632Z,28.28
2023-05-03T20:57:35.067Z,28.27
2023-05-03T21:00:08.345Z,28.27
2023-05-03T21:02:38.793Z,28.26
2023-05-03T21:05:09.384Z,28.25
2023-05-03T21:07:40.254Z,28.24
2023-05-03T21:10:12.345Z,28.23
2023-05-03T21:12:43.247Z,28.22
2023-05-03T21:15:16.475Z,28.21
2023-05-03T21:17:46.994Z,28.19
2023-05-03T21:20:17.899Z,28.19
2023-05-03T21:22:49.209Z,28.18
2023-05-03T21:25:19.397Z,28.18
2023-05-03T21:27:50.631Z,28.17
2023-05-03T21:30:23.891Z,28.17
2023-05-03T21:32:54.757Z,28.15
2023-05-03T21:35:24.952Z,28.13
2023-05-03T21:37:55.532Z,28.12
2023-05-03T21:40:26.084Z,28.12
2023-05-03T21:42:56.742Z,28.11
2023-05-03T21:45:29.385Z,28.11
2023-05-03T21:47:59.469Z,28.10
2023-05-03T21:50:30.161Z,28.09
2023-05-03T21:53:00.654Z,28.09
2023-05-03T21:55:32.616Z,28.08
2023-05-03T21:58:03.200Z,28.08
2023-05-03T22:00:36.978Z,28.08
2023-05-03T22:03:07.699Z,28.07
2023-05-03T22:05:41.131Z,28.06
2023-05-03T22:08:15.032Z,28.06
2023-05-03T22:10:45.534Z,28.04
2023-05-03T22:13:15.956Z,28.04
2023-05-03T22:15:48.675Z,28.03
2023-05-03T22:18:19.231Z,28.03
2023-05-03T22:20:49.649Z,28.02
2023-05-03T22:23:20.121Z,28.01
2023-05-03T22:25:50.377Z,28.00
2023-05-03T22:28:20.441Z,27.99
2023-05-03T22:30:53.013Z,27.98
2023-05-03T22:33:25.000Z,27.97
2023-05-03T22:35:55.104Z,27.96
2023-05-03T22:38:25.149Z,27.95
2023-05-03T22:40:55.592Z,27.94
2023-05-03T22:43:26.159Z,27.92
2023-05-03T22:45:58.670Z,27.91
2023-05-03T22:48:30.481Z,27.90
2023-05-03T22:51:00.522Z,27.90
2023-05-03T22:53:31.423Z,27.88
2023-05-03T22:56:04.631Z,27.86
2023-05-03T22:58:35.251Z,27.86
2023-05-03T23:01:12.240Z,27.84
2023-05-03T23:03:43.131Z,27.83
2023-05-03T23:06:14.327Z,27.82
2023-05-03T23:08:44.991Z,27.80
2023-05-03T23:11:15.401Z,27.78
2023-05-03T23:13:46.379Z,27.75
2023-05-03T23:16:18.697Z,27.73
2023-05-03T23:18:49.095Z,27.71
2023-05-03T23:21:19.353Z,27.68
2023-05-03T23:23:49.722Z,27.67
2023-05-03T23:26:20.506Z,27.65
2023-05-03T23:28:51.583Z,27.63
2023-05-03T23:31:24.401Z,27.63
2023-05-03T23:33:55.427Z,27.61
2023-05-03T23:36:26.284Z,27.59
2023-05-03T23:38:56.969Z,27.57
2023-05-03T23:41:27.689Z,27.56
2023-05-03T23:43:58.293Z,27.56
2023-05-03T23:46:31.285Z,27.54
2023-05-03T23:49:01.729Z,27.51
2023-05-03T23:51:32.413Z,27.49
2023-05-03T23:54:03.065Z,27.49
2023-05-03T23:56:33.450Z,27.46
2023-05-03T23:59:04.085Z,27.45
